createdAt,value
2022-10-08T00:00:51.706Z,11.22
2022-10-08T00:03:20.161Z,11.23
2022-10-08T00:05:59.628Z,11.22
2022-10-08T00:08:28.886Z,11.30
2022-10-08T00:11:00.904Z,11.32
2022-10-08T00:13:40.981Z,11.26
2022-10-08T00:16:23.639Z,11.27
2022-10-08T00:18:51.409Z,11.30
2022-10-08T00:21:21.497Z,11.28
2022-10-08T00:23:50.174Z,11.27
2022-10-08T00:26:19.101Z,11.24
2022-10-08T00:28:47.161Z,11.28
2022-10-08T00:31:35.603Z,11.24
2022-10-08T00:34:05.862Z,11.27
2022-10-08T00:36:34.058Z,11.33
2022-10-08T00:39:04.066Z,11.29
2022-10-08T00:41:33.286Z,11.32
2022-10-08T00:44:04.710Z,11.33
2022-10-08T00:46:47.089Z,11.35
2022-10-08T00:49:17.891Z,11.39
2022-10-08T00:51:49.766Z,11.41
2022-10-08T00:54:18.698Z,11.42
2022-10-08T00:56:49.060Z,11.40
2022-10-08T00:59:16.890Z,11.39
2022-10-08T01:01:44.291Z,11.36
2022-10-08T01:04:12.243Z,11.38
2022-10-08T01:06:48.956Z,11.33
2022-10-08T01:09:19.750Z,11.38
2022-10-08T01:12:08.130Z,11.42
2022-10-08T01:14:56.498Z,11.45
2022-10-08T01:17:44.349Z,11.43
2022-10-08T01:20:51.875Z,11.43
2022-10-08T01:24:10.700Z,11.39
2022-10-08T01:27:00.886Z,11.43
2022-10-08T01:29:39.878Z,11.46
2022-10-08T01:32:17.269Z,11.46
2022-10-08T01:34:50.931Z,11.45
2022-10-08T01:37:26.654Z,11.54
2022-10-08T01:39:56.640Z,11.54
2022-10-08T01:42:26.159Z,11.57
2022-10-08T01:45:00.330Z,11.60
2022-10-08T01:47:28.972Z,11.53
2022-10-08T01:50:31.534Z,11.56
2022-10-08T01:53:04.142Z,11.57
2022-10-08T01:55:40.453Z,11.54
2022-10-08T01:58:13.872Z,11.60
2022-10-08T02:00:42.171Z,11.49
2022-10-08T02:03:13.349Z,11.42
2022-10-08T02:05:48.687Z,11.39
2022-10-08T02:08:15.267Z,11.41
2022-10-08T02:10:43.097Z,11.36
2022-10-08T02:13:10.918Z,11.35
2022-10-08T02:15:47.874Z,11.32
2022-10-08T02:18:20.589Z,11.33
2022-10-08T02:20:58.861Z,11.38
2022-10-08T02:23:41.469Z,11.34
2022-10-08T02:26:13.860Z,11.35
2022-10-08T02:29:15.066Z,11.31
2022-10-08T02:31:49.914Z,11.33
2022-10-08T02:34:33.191Z,11.30
2022-10-08T02:37:12.195Z,11.30
2022-10-08T02:39:43.995Z,11.20
2022-10-08T02:42:15.427Z,11.16
2022-10-08T02:45:07.491Z,11.19
2022-10-08T02:47:38.544Z,11.22
2022-10-08T02:50:11.921Z,11.15
2022-10-08T02:52:43.494Z,11.19
2022-10-08T02:55:41.405Z,11.19
2022-10-08T02:58:10.785Z,11.25
2022-10-08T03:00:42.931Z,11.30
2022-10-08T03:03:13.598Z,11.30
2022-10-08T03:05:42.032Z,11.28
2022-10-08T03:08:11.717Z,11.26
2022-10-08T03:10:40.528Z,11.27
2022-10-08T03:13:09.207Z,11.34
2022-10-08T03:15:37.185Z,11.33
2022-10-08T03:18:08.785Z,11.35
2022-10-08T03:20:42.170Z,11.40
2022-10-08T03:23:08.911Z,11.41
2022-10-08T03:25:35.505Z,11.43
2022-10-08T03:28:02.342Z,11.44
2022-10-08T03:30:29.201Z,11.42
2022-10-08T03:32:55.742Z,11.36
2022-10-08T03:35:22.317Z,11.38
2022-10-08T03:37:48.904Z,11.41
2022-10-08T03:40:15.626Z,11.38
2022-10-08T03:42:42.430Z,11.41
2022-10-08T03:45:09.477Z,11.38
2022-10-08T03:47:36.053Z,11.41
2022-10-08T03:50:02.798Z,11.40
2022-10-08T03:52:30.690Z,11.46
2022-10-08T03:54:57.323Z,11.48
2022-10-08T03:57:23.977Z,11.46
2022-10-08T03:59:50.530Z,11.52
2022-10-08T04:02:17.098Z,11.55
2022-10-08T04:04:43.742Z,11.49
2022-10-08T04:07:10.350Z,11.48
2022-10-08T04:09:37.036Z,11.49
2022-10-08T04:12:03.850Z,11.50
2022-10-08T04:14:30.406Z,11.46
2022-10-08T04:16:56.965Z,11.45
2022-10-08T04:19:23.780Z,11.46
2022-10-08T04:21:50.348Z,11.47
2022-10-08T04:24:16.909Z,11.53
2022-10-08T04:26:43.523Z,11.51
2022-10-08T04:29:12.516Z,11.50
2022-10-08T04:31:40.330Z,11.50
2022-10-08T04:34:06.995Z,11.45
2022-10-08T04:36:33.590Z,11.46
2022-10-08T04:39:00.254Z,11.45
2022-10-08T04:41:27.650Z,11.42
2022-10-08T04:43:58.344Z,11.42
2022-10-08T04:46:25.011Z,11.34
2022-10-08T04:48:54.010Z,11.27
2022-10-08T04:51:23.331Z,11.24
2022-10-08T04:53:51.044Z,11.22
2022-10-08T04:56:23.610Z,11.23
2022-10-08T04:58:50.302Z,11.23
2022-10-08T05:01:19.973Z,11.16
2022-10-08T05:03:49.342Z,11.16
2022-10-08T05:06:17.825Z,11.20
2022-10-08T05:08:45.201Z,11.21
2022-10-08T05:11:12.794Z,11.21
2022-10-08T05:13:39.712Z,11.15
2022-10-08T05:16:08.326Z,11.09
2022-10-08T05:18:36.412Z,11.09
2022-10-08T05:21:10.961Z,11.09
2022-10-08T05:23:38.668Z,11.08
2022-10-08T05:26:35.945Z,11.03
2022-10-08T05:29:10.880Z,11.03
2022-10-08T05:31:37.737Z,10.95
2022-10-08T05:34:04.452Z,10.97
2022-10-08T05:36:32.503Z,10.95
2022-10-08T05:39:01.307Z,10.98
2022-10-08T05:41:30.156Z,10.96
2022-10-08T05:43:58.237Z,10.94
2022-10-08T05:46:26.889Z,10.98
2022-10-08T05:48:57.661Z,11.05
2022-10-08T05:51:24.783Z,11.08
2022-10-08T05:53:52.951Z,11.13
2022-10-08T05:56:21.926Z,11.13
2022-10-08T05:58:49.846Z,11.05
2022-10-08T06:01:28.172Z,11.12
2022-10-08T06:03:57.648Z,11.18
2022-10-08T06:06:25.206Z,11.21
2022-10-08T06:08:58.626Z,11.21
2022-10-08T06:11:29.548Z,11.15
2022-10-08T06:13:57.673Z,11.23
2022-10-08T06:16:25.322Z,11.24
2022-10-08T06:18:52.390Z,11.29
2022-10-08T06:21:21.817Z,11.28
2022-10-08T06:23:54.316Z,11.27
2022-10-08T06:26:22.256Z,11.28
2022-10-08T06:28:49.795Z,11.29
2022-10-08T06:31:17.148Z,11.31
2022-10-08T06:33:43.854Z,11.28
2022-10-08T06:36:14.581Z,11.28
2022-10-08T06:38:41.246Z,11.33
2022-10-08T06:41:08.526Z,11.41
2022-10-08T06:43:35.208Z,11.49
2022-10-08T06:46:05.996Z,11.61
2022-10-08T06:48:33.371Z,11.69
2022-10-08T06:51:01.469Z,11.66
2022-10-08T06:53:28.646Z,11.73
2022-10-08T06:55:59.769Z,11.71
2022-10-08T06:58:27.182Z,11.79
2022-10-08T07:01:11.229Z,11.89
2022-10-08T07:03:38.114Z,11.99
2022-10-08T07:06:10.570Z,12.07
2022-10-08T07:08:37.154Z,12.13
2022-10-08T07:11:12.450Z,12.24
2022-10-08T07:13:40.036Z,12.29
2022-10-08T07:16:09.577Z,12.29
2022-10-08T07:18:38.993Z,12.22
2022-10-08T07:21:06.940Z,12.26
2022-10-08T07:23:33.975Z,12.33
2022-10-08T07:26:18.025Z,12.33
2022-10-08T07:28:59.678Z,12.32
2022-10-08T07:31:31.595Z,12.37
2022-10-08T07:33:59.753Z,12.42
2022-10-08T07:36:27.716Z,12.47
2022-10-08T07:38:59.231Z,12.51
2022-10-08T07:41:27.013Z,12.56
2022-10-08T07:43:55.194Z,12.60
2022-10-08T07:46:22.302Z,12.68
2022-10-08T07:48:48.920Z,12.74
2022-10-08T07:51:18.003Z,12.74
2022-10-08T07:53:45.178Z,12.80
2022-10-08T07:56:14.637Z,12.88
2022-10-08T07:58:41.712Z,12.88
2022-10-08T08:01:12.232Z,12.88
2022-10-08T08:03:38.769Z,12.90
2022-10-08T08:06:10.908Z,12.91
2022-10-08T08:08:39.244Z,12.91
2022-10-08T08:11:07.838Z,13.00
2022-10-08T08:13:37.479Z,13.15
2022-10-08T08:16:07.211Z,13.25
2022-10-08T08:18:36.835Z,13.28
2022-10-08T08:21:06.338Z,13.29
2022-10-08T08:23:37.874Z,13.26
2022-10-08T08:26:07.232Z,13.30
2022-10-08T08:28:34.206Z,13.31
2022-10-08T08:31:28.687Z,13.28
2022-10-08T08:33:58.494Z,13.25
2022-10-08T08:36:33.817Z,13.34
2022-10-08T08:39:01.323Z,13.40
2022-10-08T08:42:06.618Z,13.43
2022-10-08T08:44:37.805Z,13.39
2022-10-08T08:47:28.954Z,13.51
2022-10-08T08:50:00.963Z,13.54
2022-10-08T08:52:34.112Z,13.60
2022-10-08T08:55:01.290Z,13.68
2022-10-08T08:57:42.214Z,13.69
2022-10-08T09:00:18.124Z,13.73
2022-10-08T09:02:49.709Z,13.82
2022-10-08T09:05:19.007Z,13.88
2022-10-08T09:07:53.886Z,13.94
2022-10-08T09:10:36.811Z,14.03
2022-10-08T09:13:03.946Z,13.92
2022-10-08T09:15:36.727Z,13.73
2022-10-08T09:18:04.590Z,13.72
2022-10-08T09:20:32.244Z,13.89
2022-10-08T09:23:00.688Z,13.96
2022-10-08T09:25:32.853Z,14.04
2022-10-08T09:28:01.636Z,14.15
2022-10-08T09:30:38.967Z,14.13
2022-10-08T09:33:25.290Z,14.23
2022-10-08T09:35:54.852Z,14.10
2022-10-08T09:38:30.781Z,14.18
2022-10-08T09:41:06.362Z,14.28
2022-10-08T09:43:34.942Z,14.40
2022-10-08T09:46:11.705Z,14.40
2022-10-08T09:48:39.611Z,14.39
2022-10-08T09:51:14.226Z,14.42
2022-10-08T09:53:47.890Z,14.42
2022-10-08T09:56:15.602Z,14.59
2022-10-08T09:58:52.972Z,14.59
2022-10-08T10:01:20.037Z,14.59
2022-10-08T10:04:06.561Z,14.82
2022-10-08T10:06:37.281Z,14.97
2022-10-08T10:09:40.662Z,15.13
2022-10-08T10:12:32.338Z,15.12
2022-10-08T10:15:14.483Z,15.03
2022-10-08T10:17:55.033Z,15.06
2022-10-08T10:20:29.157Z,15.32
2022-10-08T10:23:01.647Z,15.50
2022-10-08T10:26:06.615Z,15.56
2022-10-08T10:28:57.286Z,15.53
2022-10-08T10:31:45.548Z,15.47
2022-10-08T10:34:21.666Z,15.39
2022-10-08T10:36:52.683Z,15.32
2022-10-08T10:40:00.154Z,15.22
2022-10-08T10:42:38.342Z,15.16
2022-10-08T10:45:13.760Z,15.14
2022-10-08T10:47:40.803Z,15.19
2022-10-08T10:50:14.510Z,15.22
2022-10-08T10:53:26.482Z,15.27
2022-10-08T10:56:17.851Z,15.30
2022-10-08T10:59:25.926Z,15.27
2022-10-08T11:02:09.166Z,15.17
2022-10-08T11:04:50.923Z,15.20
2022-10-08T11:07:32.838Z,15.23
2022-10-08T11:10:38.233Z,15.36
2022-10-08T11:13:42.349Z,15.31
2022-10-08T11:16:49.454Z,15.37
2022-10-08T11:19:55.603Z,15.37
2022-10-08T11:22:45.153Z,15.38
2022-10-08T11:26:23.351Z,15.39
2022-10-08T11:29:31.461Z,15.53
2022-10-08T11:31:58.867Z,15.60
2022-10-08T11:34:32.000Z,15.56
2022-10-08T11:37:40.054Z,15.60
2022-10-08T11:40:47.082Z,15.63
2022-10-08T11:43:24.842Z,15.67
2022-10-08T11:46:31.511Z,15.66
2022-10-08T11:49:24.103Z,15.68
2022-10-08T11:51:52.353Z,15.68
2022-10-08T11:54:31.656Z,15.72
2022-10-08T11:58:07.167Z,15.77
2022-10-08T12:00:53.321Z,15.82
2022-10-08T12:03:24.874Z,15.83
2022-10-08T12:05:54.400Z,15.87
2022-10-08T12:09:16.063Z,15.90
2022-10-08T12:11:51.047Z,15.92
2022-10-08T12:14:27.241Z,15.98
2022-10-08T12:16:57.211Z,16.06
2022-10-08T12:19:43.011Z,16.13
2022-10-08T12:22:44.542Z,16.28
2022-10-08T12:25:34.904Z,16.46
2022-10-08T12:28:47.825Z,16.57
2022-10-08T12:31:30.246Z,16.63
2022-10-08T12:34:22.789Z,16.66
2022-10-08T12:37:16.679Z,16.67
2022-10-08T12:39:45.684Z,16.58
2022-10-08T12:42:25.799Z,16.53
2022-10-08T12:45:20.432Z,16.58
2022-10-08T12:47:58.557Z,16.61
2022-10-08T12:50:40.160Z,16.61
2022-10-08T12:53:08.473Z,16.55
2022-10-08T12:55:44.462Z,16.52
2022-10-08T12:58:17.859Z,16.38
2022-10-08T13:00:50.000Z,16.33
2022-10-08T13:03:18.204Z,16.30
2022-10-08T13:05:47.999Z,16.24
2022-10-08T13:08:36.031Z,16.21
2022-10-08T13:11:14.679Z,16.08
2022-10-08T13:13:43.039Z,16.03
2022-10-08T13:16:21.382Z,15.93
2022-10-08T13:18:53.808Z,15.84
2022-10-08T13:21:32.551Z,15.87
2022-10-08T13:24:00.583Z,15.90
2022-10-08T13:26:44.911Z,15.86
2022-10-08T13:29:37.912Z,15.87
2022-10-08T13:32:21.855Z,15.92
2022-10-08T13:34:51.958Z,16.02
2022-10-08T13:37:35.193Z,16.09
2022-10-08T13:40:25.215Z,16.19
2022-10-08T13:42:54.522Z,16.30
2022-10-08T13:45:26.210Z,16.35
2022-10-08T13:47:53.684Z,16.46
2022-10-08T13:50:21.485Z,16.49
2022-10-08T13:52:54.413Z,16.53
2022-10-08T13:55:26.816Z,16.60
2022-10-08T13:57:57.821Z,16.64
2022-10-08T14:00:24.476Z,16.57
2022-10-08T14:02:51.769Z,16.60
2022-10-08T14:05:22.730Z,16.47
2022-10-08T14:07:54.056Z,16.33
2022-10-08T14:10:20.962Z,16.19
2022-10-08T14:12:47.920Z,16.05
2022-10-08T14:15:16.279Z,15.95
2022-10-08T14:17:43.235Z,15.84
2022-10-08T14:20:13.276Z,15.73
2022-10-08T14:22:39.857Z,15.66
2022-10-08T14:25:14.628Z,15.64
2022-10-08T14:27:41.323Z,15.62
2022-10-08T14:30:13.085Z,15.63
2022-10-08T14:32:59.642Z,15.63
2022-10-08T14:35:29.744Z,15.65
2022-10-08T14:37:56.379Z,15.63
2022-10-08T14:40:23.270Z,15.60
2022-10-08T14:42:50.408Z,15.56
2022-10-08T14:45:17.336Z,15.53
2022-10-08T14:47:44.179Z,15.52
2022-10-08T14:50:10.774Z,15.52
2022-10-08T14:52:44.649Z,15.52
2022-10-08T14:55:12.204Z,15.52
2022-10-08T14:57:38.926Z,15.53
2022-10-08T15:00:06.474Z,15.52
2022-10-08T15:02:34.461Z,15.51
2022-10-08T15:05:02.035Z,15.49
2022-10-08T15:07:31.567Z,15.46
2022-10-08T15:09:59.006Z,15.39
2022-10-08T15:12:25.751Z,15.35
2022-10-08T15:14:52.353Z,15.32
2022-10-08T15:17:18.940Z,15.33
2022-10-08T15:19:45.489Z,15.37
2022-10-08T15:22:12.767Z,15.39
2022-10-08T15:24:39.397Z,15.43
2022-10-08T15:27:05.953Z,15.43
2022-10-08T15:29:32.736Z,15.45
2022-10-08T15:31:59.358Z,15.47
2022-10-08T15:34:25.939Z,15.50
2022-10-08T15:36:55.582Z,15.51
2022-10-08T15:39:22.849Z,15.53
2022-10-08T15:41:51.633Z,15.53
2022-10-08T15:44:26.538Z,15.53
2022-10-08T15:47:07.349Z,15.55
2022-10-08T15:49:39.204Z,15.54
2022-10-08T15:52:10.042Z,15.55
2022-10-08T15:54:41.009Z,15.53
2022-10-08T15:57:09.221Z,15.49
2022-10-08T15:59:36.141Z,15.46
2022-10-08T16:02:10.670Z,15.45
2022-10-08T16:04:39.891Z,15.41
2022-10-08T16:07:10.097Z,15.34
2022-10-08T16:09:36.773Z,15.28
2022-10-08T16:12:03.583Z,15.22
2022-10-08T16:14:30.391Z,15.16
2022-10-08T16:16:57.377Z,15.14
2022-10-08T16:19:26.657Z,15.13
2022-10-08T16:21:55.585Z,15.11
2022-10-08T16:24:22.586Z,15.11
2022-10-08T16:26:49.269Z,15.09
2022-10-08T16:29:17.777Z,15.08
2022-10-08T16:31:45.704Z,15.06
2022-10-08T16:34:21.269Z,15.05
2022-10-08T16:36:49.137Z,15.04
2022-10-08T16:39:19.091Z,15.02
2022-10-08T16:41:46.613Z,14.99
2022-10-08T16:44:18.418Z,14.97
2022-10-08T16:46:50.178Z,14.94
2022-10-08T16:49:26.249Z,14.91
2022-10-08T16:51:55.876Z,14.88
2022-10-08T16:54:23.048Z,14.85
2022-10-08T16:56:49.738Z,14.88
2022-10-08T16:59:19.656Z,14.82
2022-10-08T17:01:49.196Z,14.81
2022-10-08T17:04:16.581Z,14.81
2022-10-08T17:06:44.074Z,14.76
2022-10-08T17:09:11.602Z,14.76
2022-10-08T17:11:38.570Z,14.76
2022-10-08T17:14:07.584Z,14.78
2022-10-08T17:16:35.838Z,14.78
2022-10-08T17:19:03.561Z,14.76
2022-10-08T17:21:31.553Z,14.80
2022-10-08T17:23:59.255Z,14.80
2022-10-08T17:26:28.003Z,14.80
2022-10-08T17:28:55.550Z,14.80
2022-10-08T17:31:26.402Z,14.78
2022-10-08T17:33:53.455Z,14.73
2022-10-08T17:36:26.437Z,14.71
2022-10-08T17:38:55.532Z,14.78
2022-10-08T17:41:24.994Z,14.72
2022-10-08T17:43:52.963Z,14.68
2022-10-08T17:46:22.358Z,14.65
2022-10-08T17:48:49.813Z,14.64
2022-10-08T17:51:22.099Z,14.66
2022-10-08T17:53:53.633Z,14.67
2022-10-08T17:56:21.175Z,14.58
2022-10-08T17:58:48.025Z,14.61
2022-10-08T18:01:17.184Z,14.55
2022-10-08T18:03:49.154Z,14.44
2022-10-08T18:06:15.963Z,14.40
2022-10-08T18:08:42.545Z,14.25
2022-10-08T18:11:13.566Z,14.21
2022-10-08T18:13:41.018Z,14.22
2022-10-08T18:16:13.439Z,14.21
2022-10-08T18:18:41.637Z,14.19
2022-10-08T18:21:10.549Z,14.18
2022-10-08T18:23:37.426Z,14.20
2022-10-08T18:26:28.437Z,14.23
2022-10-08T18:28:57.420Z,14.19
2022-10-08T18:31:26.325Z,14.18
2022-10-08T18:33:57.953Z,14.17
2022-10-08T18:36:27.044Z,14.18
2022-10-08T18:38:58.957Z,14.22
2022-10-08T18:41:28.221Z,14.21
2022-10-08T18:43:55.556Z,14.18
2022-10-08T18:46:23.453Z,14.21
2022-10-08T18:48:50.176Z,14.17
2022-10-08T18:51:22.604Z,14.20
2022-10-08T18:53:49.824Z,14.21
2022-10-08T18:56:21.904Z,14.19
2022-10-08T18:58:50.614Z,14.20
2022-10-08T19:01:23.179Z,14.20
2022-10-08T19:03:52.070Z,14.22
2022-10-08T19:06:20.920Z,14.22
2022-10-08T19:08:48.734Z,14.17
2022-10-08T19:11:21.760Z,14.17
2022-10-08T19:13:49.480Z,14.15
2022-10-08T19:16:16.434Z,14.09
2022-10-08T19:18:44.965Z,14.13
2022-10-08T19:21:13.279Z,14.15
2022-10-08T19:23:40.474Z,14.16
2022-10-08T19:26:07.157Z,14.13
2022-10-08T19:28:37.122Z,14.16
2022-10-08T19:31:27.251Z,14.11
2022-10-08T19:34:05.452Z,14.04
2022-10-08T19:36:35.356Z,14.04
2022-10-08T19:39:13.063Z,14.05
2022-10-08T19:41:40.426Z,13.98
2022-10-08T19:44:07.265Z,14.04
2022-10-08T19:46:34.370Z,13.95
2022-10-08T19:49:03.591Z,13.91
2022-10-08T19:51:31.383Z,13.93
2022-10-08T19:53:59.318Z,13.97
2022-10-08T19:56:26.834Z,13.92
2022-10-08T19:58:54.248Z,13.95
2022-10-08T20:01:26.512Z,14.00
2022-10-08T20:03:57.310Z,13.97
2022-10-08T20:06:26.314Z,13.97
2022-10-08T20:08:54.754Z,13.95
2022-10-08T20:11:22.129Z,13.96
2022-10-08T20:13:50.082Z,13.95
2022-10-08T20:16:19.744Z,13.91
2022-10-08T20:18:59.295Z,13.91
2022-10-08T20:21:27.538Z,13.97
2022-10-08T20:23:54.518Z,14.02
2022-10-08T20:26:26.713Z,13.94
2022-10-08T20:28:56.941Z,13.97
2022-10-08T20:31:33.114Z,13.95
2022-10-08T20:34:21.312Z,13.94
2022-10-08T20:36:48.765Z,13.91
2022-10-08T20:39:17.010Z,13.88
2022-10-08T20:41:44.100Z,13.90
2022-10-08T20:44:10.945Z,13.86
2022-10-08T20:46:38.767Z,13.82
2022-10-08T20:49:06.190Z,13.77
2022-10-08T20:51:33.689Z,13.73
2022-10-08T20:54:06.206Z,13.81
2022-10-08T20:56:39.277Z,13.78
2022-10-08T20:59:07.565Z,13.78
2022-10-08T21:01:37.689Z,13.73
2022-10-08T21:04:05.607Z,13.66
2022-10-08T21:06:45.462Z,13.64
2022-10-08T21:09:13.442Z,13.65
2022-10-08T21:11:40.148Z,13.65
2022-10-08T21:14:07.849Z,13.66
2022-10-08T21:16:37.727Z,13.68
2022-10-08T21:19:07.152Z,13.69
2022-10-08T21:21:34.536Z,13.67
2022-10-08T21:24:01.549Z,13.64
2022-10-08T21:26:33.252Z,13.65
2022-10-08T21:29:02.189Z,13.68
2022-10-08T21:31:30.477Z,13.66
2022-10-08T21:33:58.958Z,13.69
2022-10-08T21:36:30.891Z,13.67
2022-10-08T21:38:58.685Z,13.60
2022-10-08T21:41:28.440Z,13.59
2022-10-08T21:43:59.224Z,13.60
2022-10-08T21:46:31.407Z,13.59
2022-10-08T21:49:01.029Z,13.58
2022-10-08T21:51:29.175Z,13.58
2022-10-08T21:53:57.591Z,13.54
2022-10-08T21:56:30.384Z,13.49
2022-10-08T21:58:59.398Z,13.48
2022-10-08T22:01:41.458Z,13.50
2022-10-08T22:04:11.161Z,13.49
2022-10-08T22:06:43.549Z,13.46
2022-10-08T22:09:12.065Z,13.43
2022-10-08T22:11:39.390Z,13.44
2022-10-08T22:14:06.741Z,13.49
2022-10-08T22:16:33.738Z,13.47
2022-10-08T22:19:00.550Z,13.45
2022-10-08T22:21:27.346Z,13.47
2022-10-08T22:23:54.359Z,13.41
2022-10-08T22:26:24.166Z,13.41
2022-10-08T22:28:51.053Z,13.38
2022-10-08T22:31:19.284Z,13.39
2022-10-08T22:33:46.676Z,13.37
2022-10-08T22:36:30.630Z,13.38
2022-10-08T22:38:58.500Z,13.36
2022-10-08T22:41:27.460Z,13.36
2022-10-08T22:43:54.518Z,13.36
2022-10-08T22:46:23.951Z,13.36
2022-10-08T22:48:50.995Z,13.36
2022-10-08T22:51:21.823Z,13.27
2022-10-08T22:53:49.144Z,13.31
2022-10-08T22:56:20.011Z,13.29
2022-10-08T22:58:47.088Z,13.28
2022-10-08T23:01:16.743Z,13.23
2022-10-08T23:03:43.426Z,13.23
2022-10-08T23:06:24.568Z,13.23
2022-10-08T23:08:59.275Z,13.17
2022-10-08T23:11:26.933Z,13.21
2022-10-08T23:13:55.688Z,13.20
2022-10-08T23:16:23.722Z,13.18
2022-10-08T23:18:59.214Z,13.21
2022-10-08T23:21:26.350Z,13.22
2022-10-08T23:23:54.063Z,13.17
2022-10-08T23:26:21.413Z,13.17
2022-10-08T23:28:56.735Z,13.14
2022-10-08T23:31:28.911Z,13.15
2022-10-08T23:33:56.013Z,13.13
2022-10-08T23:36:28.796Z,13.14
2022-10-08T23:38:56.547Z,13.08
2022-10-08T23:41:23.674Z,13.04
2022-10-08T23:43:51.679Z,13.04
2022-10-08T23:46:20.953Z,13.07
2022-10-08T23:48:48.539Z,13.11
2022-10-08T23:51:16.365Z,13.12
2022-10-08T23:53:44.088Z,13.16
2022-10-08T23:56:11.827Z,13.22
2022-10-08T23:58:38.411Z,13.22
